Time;durP1;ratioP1;P1;durP2;ratioP2;P2;SDS_P1;SDS_P2;PMS_P1;PMS_P2;Temp;Humidity;BMP_temperature;BMP_pressure;BME280_temperature;BME280_humidity;BME280_pressure;Samples;Min_cycle;Max_cycle;Signal;HPM_P1;HPM_P2
2021/10/16 00:00:37;;;;;;;24.80;15.25;;;8.30;85.80;;;;;;4991250;28;20125;-82
2021/10/16 00:03:03;;;;;;;23.45;15.38;;;8.30;85.90;;;;;;4991821;28;20091;-86
2021/10/16 00:05:29;;;;;;;20.85;13.82;;;8.30;85.90;;;;;;4994980;28;20465;-82
2021/10/16 00:07:55;;;;;;;20.08;14.05;;;8.30;86.00;;;;;;4984481;28;20081;-82
2021/10/16 00:10:21;;;;;;;21.23;13.93;;;8.30;86.10;;;;;;4983261;28;20034;-83
2021/10/16 00:12:46;;;;;;;20.75;15.15;;;8.30;86.00;;;;;;4989804;28;20398;-81
2021/10/16 00:15:12;;;;;;;22.80;14.55;;;8.30;85.80;;;;;;4989717;28;20433;-81
2021/10/16 00:17:38;;;;;;;18.63;13.57;;;8.40;85.80;;;;;;4991484;28;20038;-81
2021/10/16 00:20:06;;;;;;;21.08;14.55;;;8.40;85.80;;;;;;4989947;28;20031;-82
2021/10/16 00:22:32;;;;;;;19.85;13.65;;;8.30;85.80;;;;;;4991112;28;20121;-81
2021/10/16 00:24:58;;;;;;;23.10;16.08;;;8.40;85.90;;;;;;4990125;28;20484;-82
2021/10/16 00:27:24;;;;;;;21.52;13.45;;;8.40;85.90;;;;;;4996570;28;20033;-82
2021/10/16 00:29:49;;;;;;;20.05;13.38;;;8.40;85.90;;;;;;4991304;28;20042;-83
2021/10/16 00:32:15;;;;;;;22.92;14.00;;;8.40;86.00;;;;;;4989102;28;20041;-83
2021/10/16 00:34:41;;;;;;;22.05;13.05;;;8.50;86.00;;;;;;4990483;28;20042;-86
2021/10/16 00:37:06;;;;;;;18.38;13.93;;;8.50;86.00;;;;;;4985507;28;20401;-83
2021/10/16 00:39:32;;;;;;;21.30;13.75;;;8.50;86.00;;;;;;4995484;28;20045;-82
2021/10/16 00:41:58;;;;;;;23.63;13.30;;;8.50;85.90;;;;;;4996129;28;20035;-82
2021/10/16 00:44:25;;;;;;;17.98;12.40;;;8.50;85.90;;;;;;4987465;28;20149;-82
2021/10/16 00:46:54;;;;;;;25.15;14.85;;;8.50;85.90;;;;;;4992481;28;20037;-82
2021/10/16 00:49:20;;;;;;;21.98;14.43;;;8.50;86.00;;;;;;4985808;28;20038;-82
2021/10/16 00:51:46;;;;;;;20.00;13.18;;;8.50;85.90;;;;;;4991347;28;20063;-83
2021/10/16 00:54:12;;;;;;;25.05;14.05;;;8.40;85.90;;;;;;4991364;28;20510;-82
2021/10/16 00:56:43;;;;;;;23.70;14.45;;;8.40;86.00;;;;;;5000191;28;20121;-84
2021/10/16 00:59:10;;;;;;;21.00;13.50;;;8.40;86.00;;;;;;4981535;28;20125;-83
2021/10/16 01:01:37;;;;;;;20.90;13.35;;;8.30;86.10;;;;;;4997344;28;20030;-82
2021/10/16 01:04:04;;;;;;;18.13;12.25;;;8.30;86.20;;;;;;4990921;28;20049;-82
2021/10/16 01:06:30;;;;;;;20.02;12.65;;;8.20;86.20;;;;;;4987241;28;20030;-82
2021/10/16 01:08:57;;;;;;;22.05;13.52;;;8.20;86.30;;;;;;4988564;28;20066;-82
2021/10/16 01:11:48;;;;;;;21.08;13.98;;;7.90;86.80;;;;;;4987868;28;20121;-82
2021/10/16 01:14:14;;;;;;;23.52;14.95;;;7.70;87.60;;;;;;4997752;28;20584;-82
2021/10/16 01:16:42;;;;;;;23.67;15.55;;;7.60;88.00;;;;;;4981644;28;20474;-82
2021/10/16 01:19:13;;;;;;;26.05;17.10;;;7.50;88.30;;;;;;4989519;28;20092;-82
2021/10/16 01:21:41;;;;;;;27.05;16.50;;;7.40;88.50;;;;;;4993670;28;20046;-83
2021/10/16 01:24:10;;;;;;;22.55;15.27;;;7.60;88.20;;;;;;4992022;28;20036;-83
2021/10/16 01:26:36;;;;;;;24.10;15.50;;;7.60;87.80;;;;;;4989621;28;20034;-82
2021/10/16 01:29:03;;;;;;;21.77;14.38;;;7.60;87.40;;;;;;4992433;28;20045;-83
2021/10/16 01:31:29;;;;;;;26.55;14.85;;;7.60;87.30;;;;;;5002630;28;20436;-82
2021/10/16 01:33:54;;;;;;;25.45;15.02;;;7.60;87.30;;;;;;4991248;28;20541;-87
2021/10/16 01:36:20;;;;;;;22.30;14.50;;;7.50;87.20;;;;;;4985297;28;20063;-82
2021/10/16 01:38:46;;;;;;;24.25;14.85;;;7.40;87.30;;;;;;4995558;28;20046;-83
2021/10/16 01:41:12;;;;;;;24.20;14.98;;;7.50;87.40;;;;;;4992424;28;20046;-86
2021/10/16 01:43:38;;;;;;;21.83;14.13;;;7.40;87.40;;;;;;4984654;28;20042;-82
2021/10/16 01:46:04;;;;;;;23.30;14.50;;;7.40;87.40;;;;;;4985203;28;20430;-82
2021/10/16 01:48:29;;;;;;;22.98;14.20;;;7.40;87.40;;;;;;4990604;28;20473;-82
2021/10/16 01:50:55;;;;;;;25.65;15.43;;;7.30;87.50;;;;;;4984113;28;20514;-82
2021/10/16 01:53:21;;;;;;;23.17;14.63;;;7.20;87.40;;;;;;4985951;28;20552;-83
2021/10/16 01:55:47;;;;;;;27.17;16.13;;;7.20;87.50;;;;;;4988143;28;20478;-81
2021/10/16 01:58:14;;;;;;;23.02;15.63;;;7.10;87.40;;;;;;4988299;28;20200;-81
2021/10/16 02:00:44;;;;;;;21.95;15.00;;;7.10;87.50;;;;;;4987895;28;20034;-83
2021/10/16 02:03:11;;;;;;;19.77;13.93;;;7.10;87.60;;;;;;4988691;28;20046;-83
2021/10/16 02:05:44;;;;;;;25.55;14.60;;;7.10;87.40;;;;;;4991288;28;20089;-82
2021/10/16 02:08:11;;;;;;;21.42;14.30;;;7.10;87.20;;;;;;4981806;28;20030;-83
2021/10/16 02:10:37;;;;;;;22.83;14.23;;;7.10;87.10;;;;;;4986640;28;20043;-82
2021/10/16 02:13:03;;;;;;;23.60;15.00;;;7.00;87.10;;;;;;4992496;28;20551;-83
2021/10/16 02:15:29;;;;;;;23.42;15.40;;;7.00;87.20;;;;;;4987532;28;20470;-81
2021/10/16 02:17:55;;;;;;;23.58;15.15;;;7.00;87.10;;;;;;4993098;28;20045;-82
2021/10/16 02:20:20;;;;;;;18.17;13.65;;;7.10;87.30;;;;;;4985617;28;22421;-83
2021/10/16 02:22:46;;;;;;;21.38;14.00;;;7.00;87.10;;;;;;4992445;28;20057;-82
2021/10/16 02:25:12;;;;;;;26.00;14.18;;;7.10;87.10;;;;;;4995479;28;20030;-83
2021/10/16 02:27:37;;;;;;;19.08;13.27;;;7.10;86.80;;;;;;4990740;28;20540;-82
2021/10/16 02:30:03;;;;;;;21.80;13.52;;;7.10;86.70;;;;;;4987555;28;20089;-82
2021/10/16 02:32:29;;;;;;;22.67;14.63;;;7.10;86.40;;;;;;4992240;28;20118;-82
2021/10/16 02:34:55;;;;;;;20.38;13.40;;;7.10;86.60;;;;;;4985273;28;20449;-82
2021/10/16 02:37:21;;;;;;;18.73;12.93;;;7.10;86.60;;;;;;4988089;28;20067;-82
2021/10/16 02:39:46;;;;;;;21.98;12.82;;;7.20;86.40;;;;;;5001752;28;20047;-82
2021/10/16 02:42:12;;;;;;;19.92;13.50;;;7.20;86.20;;;;;;4972277;28;20050;-84
2021/10/16 02:44:38;;;;;;;18.50;11.95;;;7.20;86.40;;;;;;4982055;28;20030;-82
2021/10/16 02:47:04;;;;;;;18.75;12.93;;;7.30;86.50;;;;;;4985624;28;20117;-82
2021/10/16 02:49:30;;;;;;;16.58;12.88;;;7.30;86.60;;;;;;4987129;28;20478;-87
2021/10/16 02:51:55;;;;;;;18.73;13.05;;;7.40;86.50;;;;;;4987699;28;20031;-82
2021/10/16 02:54:21;;;;;;;23.25;14.23;;;7.40;86.60;;;;;;4982480;28;20102;-82
2021/10/16 02:56:47;;;;;;;23.00;14.07;;;7.40;86.70;;;;;;4987234;28;20039;-83
2021/10/16 02:59:13;;;;;;;21.75;12.85;;;7.50;86.60;;;;;;4977389;28;20386;-82
2021/10/16 03:01:39;;;;;;;17.50;12.80;;;7.50;86.60;;;;;;4983087;28;20057;-82
2021/10/16 03:04:04;;;;;;;21.15;12.43;;;7.60;86.60;;;;;;4985761;28;20086;-82
2021/10/16 03:06:30;;;;;;;21.42;13.43;;;7.50;86.80;;;;;;4977607;28;20417;-86
2021/10/16 03:08:55;;;;;;;21.90;12.50;;;7.70;86.60;;;;;;4986116;28;20393;-82
2021/10/16 03:11:21;;;;;;;18.13;11.90;;;7.70;86.70;;;;;;4983941;28;20057;-83
2021/10/16 03:13:47;;;;;;;19.20;12.43;;;7.80;86.50;;;;;;4980928;28;20062;-83
2021/10/16 03:16:13;;;;;;;21.02;12.57;;;7.80;86.40;;;;;;4981555;28;20420;-83
2021/10/16 03:18:38;;;;;;;20.30;12.82;;;7.50;87.00;;;;;;4996440;28;20030;-82
2021/10/16 03:21:04;;;;;;;18.05;13.15;;;7.40;87.60;;;;;;4986687;28;20760;-83
2021/10/16 03:23:30;;;;;;;19.48;13.10;;;7.40;88.00;;;;;;4995533;28;20033;-83
2021/10/16 03:25:56;;;;;;;19.15;12.98;;;7.50;88.20;;;;;;4992571;28;20394;-82
2021/10/16 03:28:21;;;;;;;17.60;10.95;;;7.40;88.30;;;;;;4989450;28;20046;-82
2021/10/16 03:30:47;;;;;;;21.10;11.27;;;7.80;87.70;;;;;;4990777;28;20470;-83
2021/10/16 03:33:14;;;;;;;24.83;12.95;;;7.80;87.40;;;;;;4989844;28;20570;-81
2021/10/16 03:35:40;;;;;;;22.17;12.15;;;7.90;87.00;;;;;;4992130;28;20061;-82
2021/10/16 03:38:06;;;;;;;20.83;11.23;;;7.70;87.30;;;;;;4989318;28;20070;-82
2021/10/16 03:40:31;;;;;;;16.70;11.20;;;7.90;87.30;;;;;;4997972;28;20065;-82
2021/10/16 03:42:57;;;;;;;15.88;11.98;;;7.90;87.30;;;;;;4994218;28;20034;-83
2021/10/16 03:45:23;;;;;;;18.48;11.32;;;8.00;87.30;;;;;;4984430;28;20034;-82
2021/10/16 03:47:48;;;;;;;20.13;12.27;;;7.90;87.10;;;;;;4989844;28;20034;-83
2021/10/16 03:50:15;;;;;;;16.70;11.73;;;7.90;87.40;;;;;;4988834;28;20616;-82
2021/10/16 03:52:40;;;;;;;19.00;11.98;;;7.90;87.50;;;;;;4990034;28;20041;-82
2021/10/16 03:55:07;;;;;;;20.33;12.40;;;7.90;87.50;;;;;;4988459;28;20042;-82
2021/10/16 03:57:33;;;;;;;19.88;11.57;;;7.90;87.60;;;;;;4991847;28;20871;-83
2021/10/16 04:00:00;;;;;;;17.77;12.75;;;7.90;87.50;;;;;;4992936;28;20034;-82
2021/10/16 04:02:27;;;;;;;19.08;11.32;;;7.90;87.50;;;;;;4991681;28;20038;-83
2021/10/16 04:04:53;;;;;;;18.83;12.55;;;7.80;87.40;;;;;;4997250;28;20111;-86
2021/10/16 04:07:19;;;;;;;21.85;12.30;;;7.80;87.60;;;;;;4988690;28;20038;-84
2021/10/16 04:09:45;;;;;;;21.08;11.75;;;7.70;87.70;;;;;;4985112;28;20096;-82
2021/10/16 04:12:11;;;;;;;21.40;12.27;;;7.80;87.80;;;;;;4982658;28;20030;-82
2021/10/16 04:14:37;;;;;;;22.17;12.85;;;7.70;87.90;;;;;;4990229;28;20042;-82
2021/10/16 04:17:03;;;;;;;22.60;12.27;;;7.70;88.00;;;;;;4995087;28;20038;-83
2021/10/16 04:19:29;;;;;;;20.90;12.65;;;7.60;88.10;;;;;;4992819;28;20070;-82
2021/10/16 04:21:54;;;;;;;17.35;11.48;;;7.60;88.00;;;;;;4984233;28;20479;-87
2021/10/16 04:24:20;;;;;;;20.63;12.13;;;7.60;88.20;;;;;;4989162;28;20034;-88
2021/10/16 04:26:46;;;;;;;19.33;12.75;;;7.50;88.30;;;;;;4986103;28;20053;-81
2021/10/16 04:29:12;;;;;;;19.77;12.40;;;7.50;88.40;;;;;;4995737;28;20054;-83
2021/10/16 04:31:38;;;;;;;19.30;12.15;;;7.50;88.40;;;;;;4991021;28;20031;-81
2021/10/16 04:34:06;;;;;;;19.92;11.15;;;7.40;88.50;;;;;;4985476;28;20029;-82
2021/10/16 04:36:32;;;;;;;18.02;11.85;;;7.40;88.50;;;;;;4988369;28;20121;-82
2021/10/16 04:38:59;;;;;;;18.60;11.73;;;7.40;88.50;;;;;;4991254;28;20061;-82
2021/10/16 04:41:25;;;;;;;16.13;11.77;;;7.30;88.50;;;;;;4988727;28;20042;-83
2021/10/16 04:43:50;;;;;;;22.30;12.30;;;7.40;88.50;;;;;;4986590;28;20046;-81
2021/10/16 04:46:16;;;;;;;24.38;12.85;;;7.30;88.40;;;;;;4989867;28;20029;-82
2021/10/16 04:48:43;;;;;;;30.45;21.05;;;7.20;88.30;;;;;;4995964;28;20042;-81
2021/10/16 04:51:10;;;;;;;24.15;19.38;;;7.20;88.30;;;;;;4987311;28;20026;-81
2021/10/16 04:53:36;;;;;;;22.58;16.98;;;7.30;88.30;;;;;;4985644;28;20390;-81
2021/10/16 04:56:02;;;;;;;20.70;14.23;;;7.30;88.30;;;;;;4983726;28;20042;-81
2021/10/16 04:58:28;;;;;;;21.13;14.90;;;7.30;88.30;;;;;;4988163;28;20035;-81
2021/10/16 05:00:53;;;;;;;19.50;12.63;;;7.30;88.30;;;;;;4983563;28;20585;-84
2021/10/16 05:03:19;;;;;;;21.58;12.15;;;7.20;88.20;;;;;;4992818;28;20154;-81
2021/10/16 05:05:45;;;;;;;16.02;10.65;;;7.10;88.00;;;;;;4991382;28;20039;-81
2021/10/16 05:08:11;;;;;;;19.90;11.77;;;7.10;88.00;;;;;;4993743;28;20492;-81
2021/10/16 05:10:37;;;;;;;22.65;13.45;;;7.10;88.10;;;;;;4996531;28;20512;-81
2021/10/16 05:13:02;;;;;;;18.08;11.30;;;7.10;88.00;;;;;;4985645;28;20409;-82
2021/10/16 05:15:28;;;;;;;14.38;10.52;;;7.10;87.90;;;;;;4987131;28;20501;-82
2021/10/16 05:17:54;;;;;;;15.13;11.27;;;7.00;87.90;;;;;;4992935;28;20121;-81
2021/10/16 05:20:20;;;;;;;17.55;11.05;;;7.00;87.80;;;;;;5006259;28;20039;-82
2021/10/16 05:22:46;;;;;;;20.55;11.70;;;6.90;87.70;;;;;;5012624;28;20046;-83
2021/10/16 05:25:12;;;;;;;17.23;11.25;;;6.90;87.60;;;;;;5015176;28;20041;-85
2021/10/16 05:27:41;;;;;;;15.52;10.90;;;6.90;87.60;;;;;;5015508;28;20085;-87
2021/10/16 05:30:07;;;;;;;19.27;11.82;;;6.80;87.70;;;;;;4993694;28;20035;-82
2021/10/16 05:32:33;;;;;;;28.10;19.17;;;6.80;87.70;;;;;;4991983;28;20033;-82
2021/10/16 05:34:59;;;;;;;22.88;15.32;;;6.70;87.80;;;;;;4996218;28;20046;-82
2021/10/16 05:37:25;;;;;;;22.98;15.73;;;6.70;88.00;;;;;;4995310;28;20062;-81
2021/10/16 05:39:50;;;;;;;21.63;14.00;;;6.70;87.90;;;;;;4992438;28;20038;-81
2021/10/16 05:42:16;;;;;;;21.25;14.45;;;6.70;88.00;;;;;;4991063;28;20033;-81
2021/10/16 05:44:42;;;;;;;22.42;13.68;;;6.70;88.10;;;;;;4990794;28;20037;-81
2021/10/16 05:47:07;;;;;;;16.83;12.75;;;6.70;88.40;;;;;;4986288;28;20485;-81
2021/10/16 05:49:34;;;;;;;19.90;13.02;;;6.60;88.40;;;;;;5004604;28;21581;-81
2021/10/16 05:52:00;;;;;;;18.05;12.55;;;6.70;88.50;;;;;;5011339;28;20058;-81
2021/10/16 05:54:25;;;;;;;19.92;13.60;;;6.60;88.50;;;;;;5024414;28;20038;-83
2021/10/16 05:56:51;;;;;;;18.25;12.90;;;6.60;88.60;;;;;;5005102;28;20042;-83
2021/10/16 05:59:17;;;;;;;21.30;13.20;;;6.60;88.50;;;;;;4993726;28;20034;-82
2021/10/16 06:01:43;;;;;;;20.38;13.43;;;6.70;88.50;;;;;;4986921;28;20059;-82
2021/10/16 06:04:08;;;;;;;23.42;13.95;;;6.70;88.50;;;;;;4984941;28;20046;-82
2021/10/16 06:06:34;;;;;;;16.63;12.95;;;6.70;88.50;;;;;;4985183;28;20073;-82
2021/10/16 06:09:00;;;;;;;18.02;12.95;;;6.70;88.50;;;;;;4987145;28;20040;-83
2021/10/16 06:11:25;;;;;;;19.55;14.13;;;6.70;88.50;;;;;;4987655;28;20121;-81
2021/10/16 06:13:51;;;;;;;20.98;15.10;;;6.70;88.50;;;;;;4985289;28;20097;-81
2021/10/16 06:16:17;;;;;;;22.13;14.95;;;6.70;88.50;;;;;;4980796;28;20371;-82
2021/10/16 06:18:44;;;;;;;20.83;13.32;;;6.70;88.40;;;;;;4986801;28;20433;-82
2021/10/16 06:21:10;;;;;;;25.20;15.98;;;6.80;88.40;;;;;;4989202;28;20180;-82
2021/10/16 06:23:36;;;;;;;26.23;17.67;;;6.80;88.20;;;;;;4998422;28;20038;-82
2021/10/16 06:26:02;;;;;;;24.38;18.20;;;6.80;88.20;;;;;;4994592;28;20105;-81
2021/10/16 06:28:28;;;;;;;23.92;17.40;;;6.90;88.00;;;;;;4999660;28;20459;-82
2021/10/16 06:30:53;;;;;;;26.90;19.30;;;6.90;88.00;;;;;;4992440;28;20046;-82
2021/10/16 06:33:19;;;;;;;25.73;18.25;;;7.00;87.70;;;;;;4986461;28;20150;-82
2021/10/16 06:35:45;;;;;;;28.02;17.67;;;7.00;87.70;;;;;;4986373;28;20426;-82
2021/10/16 06:38:11;;;;;;;28.50;21.20;;;7.10;87.70;;;;;;5006026;22;20041;-73
2021/10/16 06:40:37;;;;;;;31.15;23.10;;;7.10;87.80;;;;;;4986881;28;20112;-73
2021/10/16 06:43:03;;;;;;;38.47;30.83;;;7.20;87.90;;;;;;4986476;28;20093;-72
2021/10/16 06:45:29;;;;;;;56.33;42.08;;;7.30;87.80;;;;;;4982216;28;20112;-73
2021/10/16 06:47:54;;;;;;;56.25;44.75;;;7.30;87.80;;;;;;4979225;28;20114;-71
2021/10/16 06:50:21;;;;;;;42.17;31.17;;;7.50;87.80;;;;;;4983010;28;20038;-70
2021/10/16 06:52:47;;;;;;;37.70;25.67;;;7.50;87.70;;;;;;4982191;28;20053;-71
2021/10/16 06:55:12;;;;;;;37.08;28.40;;;7.60;87.60;;;;;;4985248;28;20469;-72
2021/10/16 06:57:38;;;;;;;37.17;31.42;;;7.70;87.70;;;;;;4985249;28;20346;-72
2021/10/16 07:00:05;;;;;;;50.13;37.53;;;7.80;87.50;;;;;;4987835;28;20180;-71
2021/10/16 07:02:31;;;;;;;46.92;36.13;;;7.90;87.10;;;;;;4981961;28;20041;-73
2021/10/16 07:04:56;;;;;;;41.10;29.25;;;8.00;87.00;;;;;;4985607;28;20738;-70
2021/10/16 07:07:22;;;;;;;33.88;24.63;;;8.10;87.00;;;;;;4983675;28;20066;-70
2021/10/16 07:09:49;;;;;;;31.58;21.38;;;8.20;87.00;;;;;;4984948;28;20072;-70
2021/10/16 07:12:14;;;;;;;45.97;32.95;;;8.40;86.90;;;;;;4977290;28;20070;-71
2021/10/16 07:14:40;;;;;;;44.85;30.10;;;8.50;86.80;;;;;;4982704;28;20442;-70
2021/10/16 07:17:06;;;;;;;31.60;19.25;;;8.60;86.80;;;;;;4981689;28;20128;-71
2021/10/16 07:19:32;;;;;;;26.23;18.38;;;8.70;86.70;;;;;;4983495;28;20088;-71
2021/10/16 07:21:58;;;;;;;31.17;15.80;;;8.80;86.50;;;;;;4983524;28;20035;-71
2021/10/16 07:24:24;;;;;;;30.08;13.93;;;8.90;86.00;;;;;;4982364;28;20038;-76
2021/10/16 07:26:50;;;;;;;19.73;12.93;;;9.00;85.60;;;;;;4980336;28;20039;-71
2021/10/16 07:29:16;;;;;;;19.95;13.90;;;9.10;86.00;;;;;;4985202;28;20034;-76
2021/10/16 07:31:41;;;;;;;25.30;16.45;;;9.20;85.80;;;;;;4984162;28;20105;-74
2021/10/16 07:34:07;;;;;;;25.10;17.23;;;9.30;85.60;;;;;;4981559;28;20031;-71
2021/10/16 07:36:37;;;;;;;20.20;14.25;;;9.50;85.60;;;;;;4993777;28;20045;-70
2021/10/16 07:39:07;;;;;;;20.40;13.48;;;9.60;85.80;;;;;;4984872;28;20469;-70
2021/10/16 07:41:34;;;;;;;19.48;12.40;;;9.70;85.40;;;;;;4981707;28;20030;-70
2021/10/16 07:44:00;;;;;;;20.90;13.60;;;9.80;85.30;;;;;;4988151;28;20031;-71
2021/10/16 07:46:26;;;;;;;20.15;12.30;;;10.00;85.30;;;;;;4986394;28;21058;-71
2021/10/16 07:48:51;;;;;;;22.40;12.05;;;10.10;85.00;;;;;;4985160;28;20355;-73
2021/10/16 07:51:17;;;;;;;19.73;10.68;;;10.20;84.60;;;;;;4983122;28;20382;-70
2021/10/16 07:53:43;;;;;;;19.30;9.45;;;10.30;84.30;;;;;;4982375;28;20030;-72
2021/10/16 07:56:09;;;;;;;22.00;11.23;;;10.40;83.70;;;;;;4989323;28;20041;-70
2021/10/16 07:58:37;;;;;;;17.95;9.95;;;10.40;83.50;;;;;;4989719;28;20066;-72
2021/10/16 08:01:03;;;;;;;20.52;9.07;;;10.50;83.20;;;;;;4983020;28;20039;-71
2021/10/16 08:03:29;;;;;;;21.88;9.30;;;10.60;83.20;;;;;;4981941;28;20031;-71
2021/10/16 08:05:54;;;;;;;17.33;7.70;;;10.70;82.90;;;;;;4988417;28;20037;-69
2021/10/16 08:08:20;;;;;;;19.42;9.82;;;10.70;81.50;;;;;;4990859;28;20114;-70
2021/10/16 08:10:46;;;;;;;20.52;10.32;;;10.80;81.60;;;;;;4985093;28;20116;-71
2021/10/16 08:13:12;;;;;;;18.17;9.02;;;10.80;80.50;;;;;;4982972;28;20378;-70
2021/10/16 08:15:38;;;;;;;17.15;9.38;;;10.90;80.60;;;;;;4987966;28;20041;-70
2021/10/16 08:18:03;;;;;;;19.38;10.15;;;11.00;80.80;;;;;;4984569;28;20454;-74
2021/10/16 08:20:30;;;;;;;14.77;9.15;;;11.10;80.50;;;;;;4987155;28;20046;-70
2021/10/16 08:22:55;;;;;;;17.00;10.13;;;11.10;79.90;;;;;;4984624;28;20033;-69
2021/10/16 08:25:21;;;;;;;16.35;9.13;;;11.30;80.20;;;;;;4982025;28;20366;-70
2021/10/16 08:27:48;;;;;;;21.92;12.63;;;11.40;80.50;;;;;;4987263;28;20120;-74
2021/10/16 08:30:15;;;;;;;19.38;11.80;;;11.60;80.10;;;;;;4986247;28;20057;-70
2021/10/16 08:32:41;;;;;;;18.65;10.77;;;11.70;80.20;;;;;;4998866;28;20027;-71
2021/10/16 08:35:09;;;;;;;19.13;12.05;;;11.80;79.80;;;;;;4984191;28;20035;-71
2021/10/16 08:37:34;;;;;;;14.27;10.00;;;12.00;79.30;;;;;;4987707;28;20141;-71
2021/10/16 08:40:00;;;;;;;24.02;10.48;;;12.10;79.20;;;;;;4986015;28;20122;-71
2021/10/16 08:42:26;;;;;;;24.15;10.02;;;12.30;78.70;;;;;;4986047;28;20038;-70
2021/10/16 08:44:58;;;;;;;20.13;9.80;;;12.20;77.40;;;;;;5002787;28;20514;-69
2021/10/16 08:47:27;;;;;;;21.17;9.43;;;12.30;77.80;;;;;;4983316;28;20124;-70
2021/10/16 08:49:53;;;;;;;20.98;9.13;;;12.40;78.00;;;;;;4988452;28;20038;-73
2021/10/16 08:52:18;;;;;;;19.65;10.48;;;12.50;78.10;;;;;;4985741;28;20035;-70
2021/10/16 08:54:44;;;;;;;17.65;9.68;;;12.60;78.00;;;;;;4990266;28;20026;-70
2021/10/16 08:57:10;;;;;;;18.27;9.68;;;12.80;77.70;;;;;;4982450;28;20054;-71
2021/10/16 08:59:35;;;;;;;21.65;10.00;;;12.90;77.50;;;;;;4976454;28;20035;-70
2021/10/16 09:02:07;;;;;;;26.13;14.20;;;13.10;76.70;;;;;;4987005;28;20059;-70
2021/10/16 09:04:34;;;;;;;22.55;11.85;;;13.20;76.10;;;;;;4994618;28;20037;-70
2021/10/16 09:07:00;;;;;;;28.45;14.48;;;13.40;75.70;;;;;;4997910;28;20101;-70
2021/10/16 09:09:29;;;;;;;16.52;8.07;;;13.50;75.50;;;;;;4988710;28;20481;-70
2021/10/16 09:11:55;;;;;;;15.70;7.25;;;13.50;74.00;;;;;;4987120;28;20038;-69
2021/10/16 09:14:26;;;;;;;19.48;7.65;;;13.60;74.80;;;;;;4984814;28;20450;-69
2021/10/16 09:17:01;;;;;;;17.83;6.45;;;13.70;74.00;;;;;;4989322;28;20493;-70
2021/10/16 09:19:30;;;;;;;17.23;6.22;;;13.90;73.00;;;;;;4985896;28;20054;-76
2021/10/16 09:22:01;;;;;;;14.57;6.35;;;14.00;71.80;;;;;;4997350;28;20479;-71
2021/10/16 09:24:34;;;;;;;18.83;6.20;;;14.10;71.90;;;;;;4973621;28;20704;-71
2021/10/16 09:27:08;;;;;;;15.32;6.18;;;14.20;71.30;;;;;;5007435;28;20113;-72
2021/10/16 09:29:36;;;;;;;18.00;6.03;;;14.30;70.80;;;;;;5004419;28;20041;-72
2021/10/16 09:32:08;;;;;;;17.10;5.78;;;14.40;69.40;;;;;;5012745;28;20104;-72
2021/10/16 09:34:36;;;;;;;15.93;5.20;;;14.40;69.80;;;;;;5007561;28;20069;-76
2021/10/16 09:37:10;;;;;;;16.10;5.90;;;14.50;69.00;;;;;;5011138;28;20057;-69
2021/10/16 09:39:39;;;;;;;16.65;8.18;;;14.70;69.20;;;;;;5009374;28;20069;-70
2021/10/16 09:42:07;;;;;;;20.25;9.05;;;14.70;70.40;;;;;;5002786;28;20038;-70
2021/10/16 09:44:35;;;;;;;18.42;8.85;;;14.70;71.40;;;;;;5004430;28;20042;-71
2021/10/16 09:47:15;;;;;;;19.08;7.72;;;14.70;72.60;;;;;;5001461;28;20029;-70
2021/10/16 09:49:57;;;;;;;15.98;7.35;;;14.60;70.60;;;;;;5014865;28;20038;-69
2021/10/16 09:52:36;;;;;;;16.92;7.70;;;14.60;70.80;;;;;;5000434;28;20049;-70
2021/10/16 09:55:03;;;;;;;16.88;7.38;;;14.60;69.70;;;;;;5011626;28;20033;-70
2021/10/16 09:57:29;;;;;;;18.58;6.53;;;14.60;69.50;;;;;;5004230;28;20095;-70
2021/10/16 09:59:58;;;;;;;14.18;6.82;;;14.60;67.80;;;;;;5010442;28;20117;-70
2021/10/16 10:02:27;;;;;;;18.38;7.13;;;14.70;68.40;;;;;;5006783;28;20109;-72
2021/10/16 10:04:55;;;;;;;15.55;6.75;;;14.60;68.60;;;;;;5005888;28;20056;-69
2021/10/16 10:07:21;;;;;;;16.33;6.38;;;14.90;69.60;;;;;;5003898;28;20536;-69
2021/10/16 10:09:47;;;;;;;14.68;7.07;;;15.00;68.60;;;;;;5006527;28;20046;-70
2021/10/16 10:12:14;;;;;;;18.52;5.90;;;15.10;68.80;;;;;;5006439;28;20061;-70
2021/10/16 10:14:46;;;;;;;14.98;5.97;;;15.10;64.90;;;;;;5005632;28;20034;-69
2021/10/16 10:17:16;;;;;;;17.52;6.38;;;15.20;65.30;;;;;;5006893;28;20061;-69
2021/10/16 10:19:45;;;;;;;16.58;5.97;;;15.40;64.70;;;;;;5006157;28;20022;-70
2021/10/16 10:22:18;;;;;;;13.23;5.40;;;15.50;63.20;;;;;;5010726;28;20045;-69
2021/10/16 10:24:47;;;;;;;14.38;5.57;;;15.60;62.80;;;;;;5011042;28;20116;-69
2021/10/16 10:27:15;;;;;;;16.73;5.88;;;15.60;61.80;;;;;;5025092;28;20473;-69
2021/10/16 10:29:47;;;;;;;17.05;5.88;;;15.60;63.20;;;;;;5011491;28;20583;-69
2021/10/16 10:32:17;;;;;;;16.95;6.53;;;15.70;63.80;;;;;;5006846;28;20037;-69
2021/10/16 10:34:52;;;;;;;14.05;4.60;;;15.90;63.70;;;;;;5007814;28;20493;-70
2021/10/16 10:37:18;;;;;;;13.75;4.63;;;16.00;60.50;;;;;;5005377;28;20054;-73
2021/10/16 10:39:49;;;;;;;14.55;4.15;;;15.90;58.90;;;;;;5009944;28;20567;-70
2021/10/16 10:42:15;;;;;;;12.88;3.38;;;16.00;57.90;;;;;;5009393;28;20029;-72
2021/10/16 10:44:43;;;;;;;10.75;2.80;;;16.00;56.60;;;;;;5007912;28;20116;-72
2021/10/16 10:47:28;;;;;;;15.77;2.70;;;15.90;57.10;;;;;;5004026;28;20022;-70
2021/10/16 10:49:55;;;;;;;11.38;3.13;;;16.00;54.60;;;;;;5003980;28;20070;-69
2021/10/16 10:52:26;;;;;;;6.80;2.25;;;15.60;50.30;;;;;;5004532;28;20037;-73
2021/10/16 10:55:07;;;;;;;9.70;2.40;;;15.60;49.00;;;;;;5002363;28;20033;-72
2021/10/16 10:57:46;;;;;;;11.25;3.13;;;15.80;49.60;;;;;;5009490;28;20026;-69
2021/10/16 11:00:14;;;;;;;10.48;2.97;;;15.90;49.90;;;;;;4999046;28;20126;-70
2021/10/16 11:02:40;;;;;;;8.63;3.28;;;16.10;50.80;;;;;;5009612;28;20369;-70
2021/10/16 11:05:31;;;;;;;12.27;4.20;;;16.10;51.30;;;;;;5006790;28;20041;-70
2021/10/16 11:08:13;;;;;;;10.90;2.83;;;16.10;51.20;;;;;;5005844;28;20033;-69
2021/10/16 11:10:40;;;;;;;10.75;2.58;;;16.10;49.90;;;;;;5003823;28;20068;-71
2021/10/16 11:13:17;;;;;;;9.75;2.53;;;16.00;47.50;;;;;;5008104;28;20077;-71
2021/10/16 11:16:04;;;;;;;9.73;2.72;;;15.70;48.90;;;;;;5018054;28;20034;-71
2021/10/16 11:18:30;;;;;;;10.70;2.90;;;15.60;48.90;;;;;;5003326;28;20042;-72
2021/10/16 11:21:22;;;;;;;8.80;2.60;;;15.50;49.10;;;;;;5003247;28;20042;-72
2021/10/16 11:23:48;;;;;;;10.13;2.70;;;15.80;51.50;;;;;;4998614;28;20500;-73
2021/10/16 11:26:16;;;;;;;9.73;2.70;;;16.10;49.90;;;;;;5009941;28;20270;-70
2021/10/16 11:28:45;;;;;;;10.95;2.78;;;16.20;48.30;;;;;;5014167;28;20388;-71
2021/10/16 11:31:11;;;;;;;9.40;2.55;;;16.50;47.70;;;;;;5002509;28;20046;-70
2021/10/16 11:33:40;;;;;;;12.45;2.58;;;16.70;48.00;;;;;;5008493;28;20481;-70
2021/10/16 11:36:08;;;;;;;9.45;2.50;;;16.70;46.30;;;;;;5002641;28;20069;-70
2021/10/16 11:38:39;;;;;;;10.15;2.25;;;16.90;45.80;;;;;;5009206;28;20174;-70
2021/10/16 11:41:06;;;;;;;8.98;2.22;;;17.10;44.00;;;;;;5016655;28;20053;-70
2021/10/16 11:43:39;;;;;;;9.13;2.30;;;17.10;44.30;;;;;;5012698;28;20038;-73
2021/10/16 11:46:16;;;;;;;12.32;2.67;;;17.20;45.50;;;;;;5022808;28;20076;-68
2021/10/16 11:48:46;;;;;;;13.38;3.38;;;17.10;44.40;;;;;;5008638;28;20034;-69
2021/10/16 11:51:12;;;;;;;8.60;3.03;;;16.90;45.50;;;;;;5013135;28;20092;-69
2021/10/16 11:53:40;;;;;;;10.80;2.28;;;17.10;45.40;;;;;;5011139;28;20669;-70
2021/10/16 11:56:11;;;;;;;11.45;3.78;;;17.00;45.40;;;;;;5009215;28;20525;-70
2021/10/16 11:58:38;;;;;;;8.57;2.67;;;16.90;44.40;;;;;;5010856;28;20053;-71
2021/10/16 12:01:09;;;;;;;8.70;2.92;;;17.00;44.40;;;;;;5013288;28;20052;-73
2021/10/16 12:03:43;;;;;;;13.10;2.78;;;17.00;44.60;;;;;;5011408;28;20128;-68
2021/10/16 12:06:10;;;;;;;9.20;2.30;;;17.00;45.60;;;;;;5009508;28;20523;-68
2021/10/16 12:09:10;;;;;;;17.55;11.43;;;16.90;45.10;;;;;;5010233;28;20151;-72
2021/10/16 12:11:38;;;;;;;8.50;3.03;;;16.70;45.90;;;;;;5003922;28;20080;-67
2021/10/16 12:14:06;;;;;;;10.05;3.03;;;16.90;43.70;;;;;;5010591;28;20121;-68
2021/10/16 12:16:41;;;;;;;9.30;2.55;;;16.90;45.20;;;;;;5009401;28;20030;-68
2021/10/16 12:19:18;;;;;;;9.40;2.22;;;17.00;45.40;;;;;;5009317;28;20076;-69
2021/10/16 12:21:46;;;;;;;9.02;2.70;;;16.80;44.50;;;;;;5005491;28;20097;-68
2021/10/16 12:24:17;;;;;;;8.50;2.33;;;16.70;45.40;;;;;;5007732;28;20117;-70
2021/10/16 12:26:45;;;;;;;15.45;5.75;;;16.50;44.80;;;;;;5005489;28;20469;-70
2021/10/16 12:29:27;;;;;;;9.93;4.43;;;16.50;45.10;;;;;;5011686;28;20038;-70
2021/10/16 12:31:53;;;;;;;10.43;3.20;;;16.50;44.90;;;;;;5022000;28;20442;-68
2021/10/16 12:34:20;;;;;;;7.45;2.20;;;16.50;44.60;;;;;;5008032;28;20476;-68
2021/10/16 12:36:55;;;;;;;8.13;3.13;;;16.40;44.40;;;;;;5021742;28;20041;-68
2021/10/16 12:39:44;;;;;;;17.95;6.10;;;16.30;45.60;;;;;;5021183;28;20050;-69